sensor_id;sensor_type;location;lat;lon;timestamp;P1;durP1;ratioP1;P2;durP2;ratioP2
583;SDS011;27024;54.068;12.116;2022-10-31T00:01:09;26.98;;;19.60;;
583;SDS011;27024;54.068;12.116;2022-10-31T00:03:38;30.08;;;20.25;;
583;SDS011;27024;54.068;12.116;2022-10-31T00:06:04;26.08;;;21.38;;
583;SDS011;27024;54.068;12.116;2022-10-31T00:08:31;23.70;;;20.85;;
583;SDS011;27024;54.068;12.116;2022-10-31T00:10:58;24.85;;;20.17;;
583;SDS011;27024;54.068;12.116;2022-10-31T00:13:24;25.05;;;20.90;;
583;SDS011;27024;54.068;12.116;2022-10-31T00:15:51;25.38;;;20.42;;
583;SDS011;27024;54.068;12.116;2022-10-31T00:18:18;25.85;;;20.42;;
583;SDS011;27024;54.068;12.116;2022-10-31T00:20:45;29.27;;;22.25;;
583;SDS011;27024;54.068;12.116;2022-10-31T00:23:12;26.52;;;21.55;;
583;SDS011;27024;54.068;12.116;2022-10-31T00:25:39;28.65;;;21.35;;
583;SDS011;27024;54.068;12.116;2022-10-31T00:28:06;25.92;;;19.88;;
583;SDS011;27024;54.068;12.116;2022-10-31T00:30:35;26.75;;;20.48;;
583;SDS011;27024;54.068;12.116;2022-10-31T00:33:03;26.10;;;21.02;;
583;SDS011;27024;54.068;12.116;2022-10-31T00:35:30;26.73;;;22.50;;
583;SDS011;27024;54.068;12.116;2022-10-31T00:37:57;25.80;;;21.35;;
583;SDS011;27024;54.068;12.116;2022-10-31T00:40:24;24.17;;;20.15;;
583;SDS011;27024;54.068;12.116;2022-10-31T00:42:50;28.83;;;20.98;;
583;SDS011;27024;54.068;12.116;2022-10-31T00:45:17;25.52;;;19.42;;
583;SDS011;27024;54.068;12.116;2022-10-31T00:47:44;24.20;;;19.67;;
583;SDS011;27024;54.068;12.116;2022-10-31T00:50:10;25.33;;;19.98;;
583;SDS011;27024;54.068;12.116;2022-10-31T00:52:37;25.45;;;20.10;;
583;SDS011;27024;54.068;12.116;2022-10-31T00:55:04;23.40;;;18.83;;
583;SDS011;27024;54.068;12.116;2022-10-31T00:57:31;25.58;;;20.35;;
583;SDS011;27024;54.068;12.116;2022-10-31T00:59:57;22.77;;;18.63;;
583;SDS011;27024;54.068;12.116;2022-10-31T01:02:24;23.45;;;19.25;;
583;SDS011;27024;54.068;12.116;2022-10-31T01:04:51;26.75;;;21.33;;
583;SDS011;27024;54.068;12.116;2022-10-31T01:07:18;23.80;;;19.67;;
583;SDS011;27024;54.068;12.116;2022-10-31T01:09:45;27.63;;;20.27;;
583;SDS011;27024;54.068;12.116;2022-10-31T01:12:11;26.35;;;20.15;;
583;SDS011;27024;54.068;12.116;2022-10-31T01:14:41;22.88;;;18.88;;
583;SDS011;27024;54.068;12.116;2022-10-31T01:17:09;26.65;;;19.60;;
583;SDS011;27024;54.068;12.116;2022-10-31T01:19:36;23.25;;;20.35;;
583;SDS011;27024;54.068;12.116;2022-10-31T01:22:03;23.33;;;18.75;;
583;SDS011;27024;54.068;12.116;2022-10-31T01:24:30;26.08;;;17.85;;
583;SDS011;27024;54.068;12.116;2022-10-31T01:26:58;23.90;;;18.77;;
583;SDS011;27024;54.068;12.116;2022-10-31T01:29:24;27.02;;;19.27;;
583;SDS011;27024;54.068;12.116;2022-10-31T01:31:51;25.33;;;18.42;;
583;SDS011;27024;54.068;12.116;2022-10-31T01:34:18;23.40;;;18.33;;
583;SDS011;27024;54.068;12.116;2022-10-31T01:36:45;23.05;;;17.90;;
583;SDS011;27024;54.068;12.116;2022-10-31T01:39:17;24.63;;;18.40;;
583;SDS011;27024;54.068;12.116;2022-10-31T01:41:49;20.17;;;16.13;;
583;SDS011;27024;54.068;12.116;2022-10-31T01:49:18;24.45;;;17.60;;
583;SDS011;27024;54.068;12.116;2022-10-31T01:51:52;23.88;;;18.35;;
583;SDS011;27024;54.068;12.116;2022-10-31T01:54:25;27.40;;;17.83;;
583;SDS011;27024;54.068;12.116;2022-10-31T01:56:58;23.73;;;18.20;;
583;SDS011;27024;54.068;12.116;2022-10-31T01:59:27;23.15;;;18.42;;
583;SDS011;27024;54.068;12.116;2022-10-31T02:01:57;21.10;;;17.80;;
583;SDS011;27024;54.068;12.116;2022-10-31T02:04:24;22.48;;;18.30;;
583;SDS011;27024;54.068;12.116;2022-10-31T02:06:56;23.13;;;17.92;;
583;SDS011;27024;54.068;12.116;2022-10-31T02:09:27;22.58;;;18.25;;
583;SDS011;27024;54.068;12.116;2022-10-31T02:11:56;23.63;;;17.23;;
583;SDS011;27024;54.068;12.116;2022-10-31T02:14:25;21.98;;;17.23;;
583;SDS011;27024;54.068;12.116;2022-10-31T02:16:54;23.52;;;18.38;;
583;SDS011;27024;54.068;12.116;2022-10-31T02:19:25;24.83;;;18.95;;
583;SDS011;27024;54.068;12.116;2022-10-31T02:22:09;26.13;;;18.25;;
583;SDS011;27024;54.068;12.116;2022-10-31T02:24:53;22.33;;;18.25;;
583;SDS011;27024;54.068;12.116;2022-10-31T02:36:22;23.98;;;18.63;;
583;SDS011;27024;54.068;12.116;2022-10-31T02:44:28;23.75;;;17.83;;
583;SDS011;27024;54.068;12.116;2022-10-31T02:47:14;23.67;;;18.48;;
583;SDS011;27024;54.068;12.116;2022-10-31T02:49:45;21.52;;;17.63;;
583;SDS011;27024;54.068;12.116;2022-10-31T02:52:25;21.80;;;17.70;;
583;SDS011;27024;54.068;12.116;2022-10-31T02:54:56;21.40;;;17.10;;
583;SDS011;27024;54.068;12.116;2022-10-31T02:57:25;22.73;;;17.75;;
583;SDS011;27024;54.068;12.116;2022-10-31T03:00:03;22.13;;;17.25;;
583;SDS011;27024;54.068;12.116;2022-10-31T03:08:11;22.00;;;18.02;;
583;SDS011;27024;54.068;12.116;2022-10-31T03:10:58;21.63;;;16.85;;
583;SDS011;27024;54.068;12.116;2022-10-31T03:13:46;23.73;;;18.08;;
583;SDS011;27024;54.068;12.116;2022-10-31T03:16:32;21.50;;;17.50;;
583;SDS011;27024;54.068;12.116;2022-10-31T03:21:51;23.30;;;17.70;;
583;SDS011;27024;54.068;12.116;2022-10-31T03:24:23;22.88;;;17.13;;
583;SDS011;27024;54.068;12.116;2022-10-31T03:26:54;22.50;;;18.73;;
583;SDS011;27024;54.068;12.116;2022-10-31T03:29:24;21.95;;;17.73;;
583;SDS011;27024;54.068;12.116;2022-10-31T03:31:55;24.40;;;18.20;;
583;SDS011;27024;54.068;12.116;2022-10-31T03:34:25;24.50;;;19.60;;
583;SDS011;27024;54.068;12.116;2022-10-31T03:36:56;23.85;;;18.73;;
583;SDS011;27024;54.068;12.116;2022-10-31T03:39:26;23.92;;;18.77;;
583;SDS011;27024;54.068;12.116;2022-10-31T03:41:59;23.52;;;17.45;;
583;SDS011;27024;54.068;12.116;2022-10-31T03:44:32;22.20;;;17.00;;
583;SDS011;27024;54.068;12.116;2022-10-31T03:47:01;22.75;;;16.85;;
583;SDS011;27024;54.068;12.116;2022-10-31T03:49:30;22.38;;;17.75;;
583;SDS011;27024;54.068;12.116;2022-10-31T03:52:07;22.73;;;17.00;;
583;SDS011;27024;54.068;12.116;2022-10-31T03:57:18;20.08;;;15.98;;
583;SDS011;27024;54.068;12.116;2022-10-31T03:59:58;20.67;;;17.15;;
583;SDS011;27024;54.068;12.116;2022-10-31T04:02:31;18.58;;;15.60;;
583;SDS011;27024;54.068;12.116;2022-10-31T04:05:00;22.42;;;16.77;;
583;SDS011;27024;54.068;12.116;2022-10-31T04:07:29;19.42;;;17.25;;
583;SDS011;27024;54.068;12.116;2022-10-31T04:10:01;18.83;;;15.23;;
583;SDS011;27024;54.068;12.116;2022-10-31T04:12:32;18.02;;;15.25;;
583;SDS011;27024;54.068;12.116;2022-10-31T04:15:02;20.38;;;16.33;;
583;SDS011;27024;54.068;12.116;2022-10-31T04:17:33;19.42;;;15.60;;
583;SDS011;27024;54.068;12.116;2022-10-31T04:20:05;19.17;;;15.60;;
583;SDS011;27024;54.068;12.116;2022-10-31T04:22:32;18.83;;;15.98;;
583;SDS011;27024;54.068;12.116;2022-10-31T04:24:59;20.00;;;16.02;;
583;SDS011;27024;54.068;12.116;2022-10-31T04:27:26;18.70;;;15.93;;
583;SDS011;27024;54.068;12.116;2022-10-31T04:29:53;16.67;;;14.15;;
583;SDS011;27024;54.068;12.116;2022-10-31T04:32:20;19.45;;;14.95;;
583;SDS011;27024;54.068;12.116;2022-10-31T04:34:47;18.00;;;15.25;;
583;SDS011;27024;54.068;12.116;2022-10-31T04:37:13;18.65;;;15.18;;
583;SDS011;27024;54.068;12.116;2022-10-31T04:39:40;18.50;;;15.70;;
583;SDS011;27024;54.068;12.116;2022-10-31T04:42:07;16.67;;;14.25;;
583;SDS011;27024;54.068;12.116;2022-10-31T04:44:33;18.10;;;15.20;;
583;SDS011;27024;54.068;12.116;2022-10-31T04:47:00;16.90;;;15.00;;
583;SDS011;27024;54.068;12.116;2022-10-31T04:49:27;19.52;;;14.85;;
583;SDS011;27024;54.068;12.116;2022-10-31T04:51:53;17.60;;;15.25;;
583;SDS011;27024;54.068;12.116;2022-10-31T04:54:20;20.48;;;16.10;;
583;SDS011;27024;54.068;12.116;2022-10-31T04:56:47;20.00;;;15.60;;
583;SDS011;27024;54.068;12.116;2022-10-31T04:59:14;18.08;;;14.70;;
583;SDS011;27024;54.068;12.116;2022-10-31T05:01:40;18.00;;;14.73;;
583;SDS011;27024;54.068;12.116;2022-10-31T05:04:07;15.45;;;13.65;;
583;SDS011;27024;54.068;12.116;2022-10-31T05:06:34;17.70;;;13.38;;
583;SDS011;27024;54.068;12.116;2022-10-31T05:09:01;19.75;;;14.35;;
583;SDS011;27024;54.068;12.116;2022-10-31T05:11:28;17.08;;;13.93;;
583;SDS011;27024;54.068;12.116;2022-10-31T05:13:54;18.88;;;14.63;;
583;SDS011;27024;54.068;12.116;2022-10-31T05:16:21;16.08;;;12.57;;
583;SDS011;27024;54.068;12.116;2022-10-31T05:18:48;17.73;;;13.90;;
583;SDS011;27024;54.068;12.116;2022-10-31T05:21:15;17.95;;;15.02;;
583;SDS011;27024;54.068;12.116;2022-10-31T05:23:41;20.08;;;15.27;;
583;SDS011;27024;54.068;12.116;2022-10-31T05:26:13;19.65;;;15.27;;
583;SDS011;27024;54.068;12.116;2022-10-31T05:28:40;22.42;;;14.48;;
583;SDS011;27024;54.068;12.116;2022-10-31T05:31:07;29.42;;;16.25;;
583;SDS011;27024;54.068;12.116;2022-10-31T05:33:34;27.67;;;17.92;;
583;SDS011;27024;54.068;12.116;2022-10-31T05:36:00;35.85;;;19.05;;
583;SDS011;27024;54.068;12.116;2022-10-31T05:38:27;40.50;;;22.13;;
583;SDS011;27024;54.068;12.116;2022-10-31T05:40:54;38.50;;;21.25;;
583;SDS011;27024;54.068;12.116;2022-10-31T05:43:24;30.65;;;18.95;;
583;SDS011;27024;54.068;12.116;2022-10-31T05:45:54;35.35;;;18.95;;
583;SDS011;27024;54.068;12.116;2022-10-31T05:48:21;35.97;;;18.17;;
583;SDS011;27024;54.068;12.116;2022-10-31T05:50:49;31.48;;;18.30;;
583;SDS011;27024;54.068;12.116;2022-10-31T05:53:16;36.40;;;18.67;;
583;SDS011;27024;54.068;12.116;2022-10-31T05:55:43;39.65;;;19.98;;
583;SDS011;27024;54.068;12.116;2022-10-31T05:58:10;48.10;;;22.40;;
583;SDS011;27024;54.068;12.116;2022-10-31T06:00:37;56.65;;;23.60;;
583;SDS011;27024;54.068;12.116;2022-10-31T06:03:05;47.70;;;23.20;;
583;SDS011;27024;54.068;12.116;2022-10-31T06:05:34;51.60;;;24.30;;
583;SDS011;27024;54.068;12.116;2022-10-31T06:08:01;39.10;;;21.30;;
583;SDS011;27024;54.068;12.116;2022-10-31T06:10:29;37.50;;;20.50;;
583;SDS011;27024;54.068;12.116;2022-10-31T06:12:56;42.03;;;20.50;;
583;SDS011;27024;54.068;12.116;2022-10-31T06:15:22;39.67;;;20.02;;
583;SDS011;27024;54.068;12.116;2022-10-31T06:17:57;45.35;;;21.35;;
583;SDS011;27024;54.068;12.116;2022-10-31T06:20:30;36.85;;;19.67;;
583;SDS011;27024;54.068;12.116;2022-10-31T06:22:58;44.30;;;21.50;;
583;SDS011;27024;54.068;12.116;2022-10-31T06:25:25;43.17;;;20.20;;
583;SDS011;27024;54.068;12.116;2022-10-31T06:27:53;37.72;;;18.85;;
583;SDS011;27024;54.068;12.116;2022-10-31T06:30:20;34.65;;;19.05;;
583;SDS011;27024;54.068;12.116;2022-10-31T06:32:47;49.33;;;23.02;;
583;SDS011;27024;54.068;12.116;2022-10-31T06:35:13;45.83;;;21.13;;
583;SDS011;27024;54.068;12.116;2022-10-31T06:37:40;42.78;;;20.33;;
583;SDS011;27024;54.068;12.116;2022-10-31T06:40:12;43.50;;;20.23;;
583;SDS011;27024;54.068;12.116;2022-10-31T06:42:38;44.45;;;20.35;;
583;SDS011;27024;54.068;12.116;2022-10-31T06:45:05;49.70;;;21.25;;
583;SDS011;27024;54.068;12.116;2022-10-31T06:47:32;50.08;;;22.77;;
583;SDS011;27024;54.068;12.116;2022-10-31T06:50:11;43.45;;;20.67;;
583;SDS011;27024;54.068;12.116;2022-10-31T06:52:37;52.20;;;22.98;;
583;SDS011;27024;54.068;12.116;2022-10-31T06:55:04;49.67;;;22.42;;
583;SDS011;27024;54.068;12.116;2022-10-31T06:57:31;54.85;;;24.75;;
583;SDS011;27024;54.068;12.116;2022-10-31T06:59:58;59.25;;;25.33;;
583;SDS011;27024;54.068;12.116;2022-10-31T07:02:24;55.83;;;24.42;;
583;SDS011;27024;54.068;12.116;2022-10-31T07:04:51;59.22;;;25.15;;
583;SDS011;27024;54.068;12.116;2022-10-31T07:07:18;64.07;;;26.75;;
583;SDS011;27024;54.068;12.116;2022-10-31T07:09:47;68.18;;;27.80;;
583;SDS011;27024;54.068;12.116;2022-10-31T07:12:15;58.03;;;26.17;;
583;SDS011;27024;54.068;12.116;2022-10-31T07:14:41;56.35;;;25.02;;
583;SDS011;27024;54.068;12.116;2022-10-31T07:17:08;70.88;;;28.63;;
583;SDS011;27024;54.068;12.116;2022-10-31T07:19:35;94.57;;;32.65;;
583;SDS011;27024;54.068;12.116;2022-10-31T07:22:02;117.82;;;36.88;;
583;SDS011;27024;54.068;12.116;2022-10-31T07:24:28;140.23;;;40.03;;
583;SDS011;27024;54.068;12.116;2022-10-31T07:26:56;132.90;;;38.47;;
583;SDS011;27024;54.068;12.116;2022-10-31T07:29:28;138.75;;;39.72;;
583;SDS011;27024;54.068;12.116;2022-10-31T07:31:54;146.75;;;42.70;;
583;SDS011;27024;54.068;12.116;2022-10-31T07:34:21;152.73;;;40.05;;
583;SDS011;27024;54.068;12.116;2022-10-31T07:36:50;157.63;;;42.47;;
583;SDS011;27024;54.068;12.116;2022-10-31T07:39:17;185.23;;;43.03;;
583;SDS011;27024;54.068;12.116;2022-10-31T07:41:43;189.07;;;43.72;;
583;SDS011;27024;54.068;12.116;2022-10-31T07:44:10;198.82;;;44.42;;
583;SDS011;27024;54.068;12.116;2022-10-31T07:46:37;197.68;;;45.50;;
583;SDS011;27024;54.068;12.116;2022-10-31T07:49:04;194.68;;;45.60;;
583;SDS011;27024;54.068;12.116;2022-10-31T07:51:30;203.02;;;46.50;;
583;SDS011;27024;54.068;12.116;2022-10-31T07:53:57;213.95;;;46.97;;
583;SDS011;27024;54.068;12.116;2022-10-31T07:56:24;264.27;;;49.22;;
583;SDS011;27024;54.068;12.116;2022-10-31T07:58:50;255.38;;;47.53;;
583;SDS011;27024;54.068;12.116;2022-10-31T08:01:17;181.40;;;44.08;;
583;SDS011;27024;54.068;12.116;2022-10-31T08:03:44;255.07;;;46.03;;
583;SDS011;27024;54.068;12.116;2022-10-31T08:06:11;274.45;;;48.05;;
583;SDS011;27024;54.068;12.116;2022-10-31T08:08:37;306.23;;;48.15;;
583;SDS011;27024;54.068;12.116;2022-10-31T08:11:04;281.27;;;47.03;;
583;SDS011;27024;54.068;12.116;2022-10-31T08:13:31;229.70;;;44.67;;
583;SDS011;27024;54.068;12.116;2022-10-31T08:15:58;234.88;;;45.45;;
583;SDS011;27024;54.068;12.116;2022-10-31T08:18:29;226.02;;;46.20;;
583;SDS011;27024;54.068;12.116;2022-10-31T08:20:56;245.50;;;44.55;;
583;SDS011;27024;54.068;12.116;2022-10-31T08:23:23;211.50;;;43.03;;
583;SDS011;27024;54.068;12.116;2022-10-31T08:25:50;216.57;;;44.22;;
583;SDS011;27024;54.068;12.116;2022-10-31T08:28:16;321.33;;;46.47;;
583;SDS011;27024;54.068;12.116;2022-10-31T08:30:43;267.15;;;46.28;;
583;SDS011;27024;54.068;12.116;2022-10-31T08:33:13;235.38;;;43.95;;
583;SDS011;27024;54.068;12.116;2022-10-31T08:35:41;267.98;;;46.10;;
583;SDS011;27024;54.068;12.116;2022-10-31T08:38:09;229.48;;;44.08;;
583;SDS011;27024;54.068;12.116;2022-10-31T08:40:38;243.20;;;45.53;;
583;SDS011;27024;54.068;12.116;2022-10-31T08:43:05;228.82;;;46.88;;
583;SDS011;27024;54.068;12.116;2022-10-31T08:45:39;251.13;;;47.05;;
583;SDS011;27024;54.068;12.116;2022-10-31T08:48:09;225.63;;;44.45;;
583;SDS011;27024;54.068;12.116;2022-10-31T08:50:37;259.92;;;44.40;;
583;SDS011;27024;54.068;12.116;2022-10-31T08:53:05;209.23;;;44.78;;
583;SDS011;27024;54.068;12.116;2022-10-31T08:55:38;229.15;;;42.10;;
583;SDS011;27024;54.068;12.116;2022-10-31T08:58:06;206.07;;;43.42;;
583;SDS011;27024;54.068;12.116;2022-10-31T09:00:35;218.25;;;43.72;;
583;SDS011;27024;54.068;12.116;2022-10-31T09:03:03;265.25;;;45.13;;
583;SDS011;27024;54.068;12.116;2022-10-31T09:05:32;223.57;;;44.22;;
583;SDS011;27024;54.068;12.116;2022-10-31T09:08:03;236.73;;;45.63;;
583;SDS011;27024;54.068;12.116;2022-10-31T09:10:32;208.48;;;44.38;;
583;SDS011;27024;54.068;12.116;2022-10-31T09:13:13;203.07;;;43.47;;
583;SDS011;27024;54.068;12.116;2022-10-31T09:15:42;211.60;;;41.35;;
583;SDS011;27024;54.068;12.116;2022-10-31T09:18:10;204.40;;;42.13;;
583;SDS011;27024;54.068;12.116;2022-10-31T09:20:39;217.38;;;42.10;;
583;SDS011;27024;54.068;12.116;2022-10-31T09:23:09;189.68;;;39.97;;
583;SDS011;27024;54.068;12.116;2022-10-31T09:25:38;190.25;;;41.47;;
583;SDS011;27024;54.068;12.116;2022-10-31T09:28:06;178.27;;;39.97;;
583;SDS011;27024;54.068;12.116;2022-10-31T09:30:35;172.32;;;38.58;;
583;SDS011;27024;54.068;12.116;2022-10-31T09:33:03;166.30;;;38.70;;
583;SDS011;27024;54.068;12.116;2022-10-31T09:35:32;155.85;;;36.90;;
583;SDS011;27024;54.068;12.116;2022-10-31T09:38:00;147.50;;;35.88;;
583;SDS011;27024;54.068;12.116;2022-10-31T09:40:49;123.97;;;34.50;;
583;SDS011;27024;54.068;12.116;2022-10-31T09:49:28;121.10;;;33.22;;
583;SDS011;27024;54.068;12.116;2022-10-31T09:52:03;105.40;;;32.58;;
583;SDS011;27024;54.068;12.116;2022-10-31T09:54:39;111.28;;;31.33;;
583;SDS011;27024;54.068;12.116;2022-10-31T09:57:12;106.65;;;29.90;;
583;SDS011;27024;54.068;12.116;2022-10-31T09:59:41;89.00;;;29.73;;
583;SDS011;27024;54.068;12.116;2022-10-31T10:02:16;87.75;;;27.17;;
583;SDS011;27024;54.068;12.116;2022-10-31T10:05:08;85.25;;;26.77;;
583;SDS011;27024;54.068;12.116;2022-10-31T10:08:25;72.60;;;26.80;;
583;SDS011;27024;54.068;12.116;2022-10-31T10:16:39;68.90;;;24.55;;
583;SDS011;27024;54.068;12.116;2022-10-31T10:29:49;64.45;;;23.30;;
583;SDS011;27024;54.068;12.116;2022-10-31T10:32:22;64.40;;;22.70;;
583;SDS011;27024;54.068;12.116;2022-10-31T10:34:52;61.70;;;23.00;;
583;SDS011;27024;54.068;12.116;2022-10-31T10:37:31;62.42;;;24.50;;
583;SDS011;27024;54.068;12.116;2022-10-31T10:42:58;57.28;;;20.88;;
583;SDS011;27024;54.068;12.116;2022-10-31T10:46:37;54.33;;;20.67;;
583;SDS011;27024;54.068;12.116;2022-10-31T10:49:12;60.90;;;22.20;;
583;SDS011;27024;54.068;12.116;2022-10-31T10:51:45;53.90;;;20.45;;
583;SDS011;27024;54.068;12.116;2022-10-31T10:59:48;54.80;;;20.38;;
583;SDS011;27024;54.068;12.116;2022-10-31T11:02:19;50.10;;;20.65;;
583;SDS011;27024;54.068;12.116;2022-10-31T11:04:54;47.15;;;19.50;;
583;SDS011;27024;54.068;12.116;2022-10-31T11:07:23;54.55;;;20.88;;
583;SDS011;27024;54.068;12.116;2022-10-31T11:09:50;51.88;;;21.17;;
583;SDS011;27024;54.068;12.116;2022-10-31T11:12:28;60.22;;;21.52;;
583;SDS011;27024;54.068;12.116;2022-10-31T11:14:58;53.45;;;20.17;;
583;SDS011;27024;54.068;12.116;2022-10-31T11:17:34;62.13;;;21.48;;
583;SDS011;27024;54.068;12.116;2022-10-31T11:20:05;57.83;;;21.92;;
583;SDS011;27024;54.068;12.116;2022-10-31T11:22:32;60.90;;;20.30;;
583;SDS011;27024;54.068;12.116;2022-10-31T11:24:59;61.42;;;21.15;;
583;SDS011;27024;54.068;12.116;2022-10-31T11:27:26;58.13;;;19.48;;
583;SDS011;27024;54.068;12.116;2022-10-31T11:29:53;59.70;;;20.35;;
583;SDS011;27024;54.068;12.116;2022-10-31T11:32:30;55.42;;;19.67;;
583;SDS011;27024;54.068;12.116;2022-10-31T11:34:59;59.83;;;19.30;;
583;SDS011;27024;54.068;12.116;2022-10-31T11:37:29;54.83;;;19.25;;
583;SDS011;27024;54.068;12.116;2022-10-31T11:40:02;61.72;;;19.90;;
583;SDS011;27024;54.068;12.116;2022-10-31T11:42:36;58.63;;;19.40;;
583;SDS011;27024;54.068;12.116;2022-10-31T11:45:17;61.75;;;19.88;;
583;SDS011;27024;54.068;12.116;2022-10-31T11:47:55;61.28;;;19.90;;
583;SDS011;27024;54.068;12.116;2022-10-31T11:50:39;58.60;;;19.65;;
583;SDS011;27024;54.068;12.116;2022-10-31T11:53:50;54.33;;;19.85;;
583;SDS011;27024;54.068;12.116;2022-10-31T11:56:04;55.33;;;19.83;;
583;SDS011;27024;54.068;12.116;2022-10-31T11:58:42;51.03;;;17.17;;
583;SDS011;27024;54.068;12.116;2022-10-31T12:01:21;48.63;;;17.05;;
583;SDS011;27024;54.068;12.116;2022-10-31T12:06:32;49.33;;;16.52;;
583;SDS011;27024;54.068;12.116;2022-10-31T12:09:14;47.08;;;16.20;;
583;SDS011;27024;54.068;12.116;2022-10-31T12:11:59;50.05;;;17.05;;
583;SDS011;27024;54.068;12.116;2022-10-31T12:17:15;49.15;;;15.32;;
583;SDS011;27024;54.068;12.116;2022-10-31T12:28:40;43.60;;;14.50;;
583;SDS011;27024;54.068;12.116;2022-10-31T12:31:37;42.50;;;13.98;;
583;SDS011;27024;54.068;12.116;2022-10-31T12:37:06;48.22;;;15.68;;
583;SDS011;27024;54.068;12.116;2022-10-31T12:42:34;46.15;;;14.82;;
583;SDS011;27024;54.068;12.116;2022-10-31T12:45:14;44.88;;;14.63;;
583;SDS011;27024;54.068;12.116;2022-10-31T12:53:58;38.17;;;13.23;;
583;SDS011;27024;54.068;12.116;2022-10-31T12:56:58;37.83;;;12.88;;
583;SDS011;27024;54.068;12.116;2022-10-31T12:59:49;37.45;;;12.75;;
583;SDS011;27024;54.068;12.116;2022-10-31T13:06:13;42.65;;;13.55;;
583;SDS011;27024;54.068;12.116;2022-10-31T13:08:11;41.85;;;13.82;;
583;SDS011;27024;54.068;12.116;2022-10-31T13:11:03;42.90;;;13.38;;
583;SDS011;27024;54.068;12.116;2022-10-31T13:13:45;38.95;;;11.38;;
583;SDS011;27024;54.068;12.116;2022-10-31T13:16:21;38.80;;;12.00;;
583;SDS011;27024;54.068;12.116;2022-10-31T13:21:44;38.38;;;11.15;;
583;SDS011;27024;54.068;12.116;2022-10-31T13:24:22;30.85;;;11.07;;
583;SDS011;27024;54.068;12.116;2022-10-31T13:26:56;34.65;;;9.27;;
583;SDS011;27024;54.068;12.116;2022-10-31T13:31:59;28.30;;;9.88;;
583;SDS011;27024;54.068;12.116;2022-10-31T13:34:49;34.42;;;10.25;;
583;SDS011;27024;54.068;12.116;2022-10-31T13:37:26;35.45;;;10.65;;
583;SDS011;27024;54.068;12.116;2022-10-31T13:42:44;33.85;;;10.27;;
583;SDS011;27024;54.068;12.116;2022-10-31T13:45:19;33.40;;;10.45;;
583;SDS011;27024;54.068;12.116;2022-10-31T13:47:59;34.30;;;10.43;;
583;SDS011;27024;54.068;12.116;2022-10-31T13:50:29;30.00;;;10.05;;
583;SDS011;27024;54.068;12.116;2022-10-31T13:58:36;29.05;;;10.88;;
583;SDS011;27024;54.068;12.116;2022-10-31T14:03:39;31.42;;;9.70;;
583;SDS011;27024;54.068;12.116;2022-10-31T14:06:39;32.35;;;10.27;;
583;SDS011;27024;54.068;12.116;2022-10-31T14:09:22;28.58;;;10.07;;
583;SDS011;27024;54.068;12.116;2022-10-31T14:14:35;31.63;;;10.40;;
583;SDS011;27024;54.068;12.116;2022-10-31T14:17:18;28.10;;;10.32;;
583;SDS011;27024;54.068;12.116;2022-10-31T14:19:59;24.92;;;8.98;;
583;SDS011;27024;54.068;12.116;2022-10-31T14:22:46;27.42;;;8.73;;
583;SDS011;27024;54.068;12.116;2022-10-31T14:28:01;24.30;;;8.20;;
583;SDS011;27024;54.068;12.116;2022-10-31T14:30:53;26.10;;;9.38;;
583;SDS011;27024;54.068;12.116;2022-10-31T14:33:22;23.40;;;9.20;;
583;SDS011;27024;54.068;12.116;2022-10-31T14:35:55;23.55;;;8.65;;
583;SDS011;27024;54.068;12.116;2022-10-31T14:41:45;25.35;;;9.07;;
583;SDS011;27024;54.068;12.116;2022-10-31T14:52:52;28.92;;;10.15;;
583;SDS011;27024;54.068;12.116;2022-10-31T14:55:23;31.30;;;10.70;;
583;SDS011;27024;54.068;12.116;2022-10-31T14:57:54;32.05;;;10.05;;
583;SDS011;27024;54.068;12.116;2022-10-31T15:00:26;29.55;;;9.27;;
583;SDS011;27024;54.068;12.116;2022-10-31T15:05:28;28.75;;;9.95;;
583;SDS011;27024;54.068;12.116;2022-10-31T15:07:57;33.35;;;9.98;;
583;SDS011;27024;54.068;12.116;2022-10-31T15:10:26;34.65;;;10.85;;
583;SDS011;27024;54.068;12.116;2022-10-31T15:13:16;33.85;;;11.20;;
583;SDS011;27024;54.068;12.116;2022-10-31T15:15:45;28.67;;;9.77;;
583;SDS011;27024;54.068;12.116;2022-10-31T15:18:18;27.42;;;9.48;;
583;SDS011;27024;54.068;12.116;2022-10-31T15:20:48;28.88;;;9.32;;
583;SDS011;27024;54.068;12.116;2022-10-31T15:23:27;29.65;;;10.23;;
583;SDS011;27024;54.068;12.116;2022-10-31T15:26:01;30.80;;;9.90;;
583;SDS011;27024;54.068;12.116;2022-10-31T15:28:31;30.73;;;9.77;;
583;SDS011;27024;54.068;12.116;2022-10-31T15:30:59;32.88;;;9.25;;
583;SDS011;27024;54.068;12.116;2022-10-31T15:33:29;32.80;;;9.27;;
583;SDS011;27024;54.068;12.116;2022-10-31T15:36:05;32.95;;;9.07;;
583;SDS011;27024;54.068;12.116;2022-10-31T15:38:32;32.63;;;9.23;;
583;SDS011;27024;54.068;12.116;2022-10-31T15:41:01;31.60;;;10.18;;
583;SDS011;27024;54.068;12.116;2022-10-31T15:43:32;32.70;;;8.93;;
583;SDS011;27024;54.068;12.116;2022-10-31T15:46:02;32.42;;;10.50;;
583;SDS011;27024;54.068;12.116;2022-10-31T15:48:36;30.00;;;9.55;;
583;SDS011;27024;54.068;12.116;2022-10-31T15:51:05;31.65;;;9.43;;
583;SDS011;27024;54.068;12.116;2022-10-31T15:53:34;25.45;;;9.18;;
583;SDS011;27024;54.068;12.116;2022-10-31T15:56:08;29.50;;;9.35;;
583;SDS011;27024;54.068;12.116;2022-10-31T15:58:41;34.17;;;10.90;;
583;SDS011;27024;54.068;12.116;2022-10-31T16:03:58;30.42;;;9.70;;
583;SDS011;27024;54.068;12.116;2022-10-31T16:06:51;33.97;;;10.23;;
583;SDS011;27024;54.068;12.116;2022-10-31T16:09:48;28.55;;;9.98;;
583;SDS011;27024;54.068;12.116;2022-10-31T16:12:16;32.88;;;10.15;;
583;SDS011;27024;54.068;12.116;2022-10-31T16:14:48;41.38;;;11.88;;
583;SDS011;27024;54.068;12.116;2022-10-31T16:17:17;39.47;;;11.55;;
583;SDS011;27024;54.068;12.116;2022-10-31T16:19:48;41.67;;;12.13;;
583;SDS011;27024;54.068;12.116;2022-10-31T16:22:20;42.78;;;12.27;;
583;SDS011;27024;54.068;12.116;2022-10-31T16:27:49;45.28;;;13.27;;
583;SDS011;27024;54.068;12.116;2022-10-31T16:30:27;44.83;;;12.38;;
583;SDS011;27024;54.068;12.116;2022-10-31T16:33:26;47.50;;;13.38;;
583;SDS011;27024;54.068;12.116;2022-10-31T16:39:02;52.90;;;14.27;;
583;SDS011;27024;54.068;12.116;2022-10-31T16:41:29;66.55;;;15.07;;
583;SDS011;27024;54.068;12.116;2022-10-31T16:43:56;63.97;;;15.88;;
583;SDS011;27024;54.068;12.116;2022-10-31T16:46:26;61.47;;;15.35;;
583;SDS011;27024;54.068;12.116;2022-10-31T16:48:54;62.83;;;18.10;;
583;SDS011;27024;54.068;12.116;2022-10-31T16:51:20;70.18;;;17.00;;
583;SDS011;27024;54.068;12.116;2022-10-31T16:53:47;77.43;;;17.70;;
583;SDS011;27024;54.068;12.116;2022-10-31T16:56:21;77.32;;;18.45;;
583;SDS011;27024;54.068;12.116;2022-10-31T16:58:53;69.47;;;17.45;;
583;SDS011;27024;54.068;12.116;2022-10-31T17:01:20;84.57;;;19.20;;
583;SDS011;27024;54.068;12.116;2022-10-31T17:03:47;81.07;;;18.08;;
583;SDS011;27024;54.068;12.116;2022-10-31T17:06:14;81.80;;;17.52;;
583;SDS011;27024;54.068;12.116;2022-10-31T17:08:41;95.47;;;18.13;;
583;SDS011;27024;54.068;12.116;2022-10-31T17:11:08;94.65;;;18.20;;
583;SDS011;27024;54.068;12.116;2022-10-31T17:13:43;78.53;;;18.15;;